createdAt,value
2022-07-29T00:02:29.282Z,98935.69
2022-07-29T00:07:35.709Z,98933.75
2022-07-29T00:12:43.252Z,98930.69
2022-07-29T00:17:49.211Z,98933.25
2022-07-29T00:22:55.966Z,98930.88
2022-07-29T00:28:03.473Z,98930.06
2022-07-29T00:33:09.278Z,98923.09
2022-07-29T00:38:15.196Z,98919.91
2022-07-29T00:43:22.756Z,98920.47
2022-07-29T00:48:27.608Z,98905.50
2022-07-29T00:53:34.184Z,98900.78
2022-07-29T00:58:42.703Z,98896.78
2022-07-29T01:03:47.558Z,98885.16
2022-07-29T01:08:53.462Z,98880.00
2022-07-29T01:14:01.215Z,98878.19
2022-07-29T01:19:16.881Z,98883.47
2022-07-29T01:24:43.716Z,98868.91
2022-07-29T01:29:55.888Z,98874.97
2022-07-29T01:35:08.403Z,98864.84
2022-07-29T01:40:19.337Z,98852.78
2022-07-29T01:45:34.626Z,98851.75
2022-07-29T01:50:44.113Z,98846.47
2022-07-29T01:55:52.160Z,98839.91
2022-07-29T02:01:01.311Z,98842.16
2022-07-29T02:06:08.381Z,98844.84
2022-07-29T02:11:13.518Z,98858.94
2022-07-29T02:16:24.973Z,98856.25
2022-07-29T02:21:31.840Z,98841.34
2022-07-29T02:26:37.944Z,98847.31
2022-07-29T02:31:48.258Z,98838.50
2022-07-29T02:36:55.039Z,98842.56
2022-07-29T02:42:05.412Z,98843.97
2022-07-29T02:47:20.192Z,98839.34
2022-07-29T02:52:30.183Z,98841.50
2022-07-29T02:57:54.631Z,98840.88
2022-07-29T03:03:07.423Z,98838.91
2022-07-29T03:08:14.886Z,98844.34
2022-07-29T03:13:20.179Z,98840.22
2022-07-29T03:18:28.385Z,98842.31
2022-07-29T03:23:36.764Z,98847.22
2022-07-29T03:28:42.040Z,98846.97
2022-07-29T03:33:50.214Z,98841.44
2022-07-29T03:38:56.914Z,98836.00
2022-07-29T03:44:02.787Z,98830.53
2022-07-29T03:49:11.946Z,98827.69
2022-07-29T03:54:17.283Z,98828.66
2022-07-29T03:59:24.652Z,98820.09
2022-07-29T04:04:32.493Z,98819.50
2022-07-29T04:09:37.412Z,98824.69
2022-07-29T04:14:42.666Z,98825.28
2022-07-29T04:19:50.129Z,98824.09
2022-07-29T04:24:57.087Z,98830.31
2022-07-29T04:30:04.077Z,98830.91
2022-07-29T04:35:12.188Z,98830.22
2022-07-29T04:40:17.563Z,98837.53
2022-07-29T04:45:22.881Z,98839.06
2022-07-29T04:50:30.707Z,98826.16
2022-07-29T04:55:35.678Z,98831.03
2022-07-29T05:00:44.061Z,98826.69
2022-07-29T05:05:51.737Z,98828.09
2022-07-29T05:10:56.995Z,98822.22
2022-07-29T05:16:02.159Z,98833.91
2022-07-29T05:21:10.384Z,98825.97
2022-07-29T05:26:16.074Z,98813.97
2022-07-29T05:31:21.133Z,98815.53
2022-07-29T05:36:29.015Z,98811.94
2022-07-29T05:41:36.411Z,98807.94
2022-07-29T05:46:41.442Z,98815.19
2022-07-29T05:51:50.427Z,98823.75
2022-07-29T05:56:55.767Z,98820.94
2022-07-29T06:02:01.184Z,98825.31
2022-07-29T06:07:09.191Z,98820.19
2022-07-29T06:12:14.216Z,98821.69
2022-07-29T06:17:20.316Z,98826.03
2022-07-29T06:22:27.934Z,98829.31
2022-07-29T06:27:33.023Z,98820.59
2022-07-29T06:32:43.018Z,98831.06
2022-07-29T06:37:53.895Z,98832.84
2022-07-29T06:43:03.227Z,98836.97
2022-07-29T06:48:09.139Z,98837.28
2022-07-29T06:53:17.549Z,98829.69
2022-07-29T06:58:22.839Z,98834.66
2022-07-29T07:03:34.462Z,98829.25
2022-07-29T07:08:42.369Z,98833.69
2022-07-29T07:13:52.173Z,98841.59
2022-07-29T07:18:57.401Z,98843.44
2022-07-29T07:24:05.047Z,98842.28
2022-07-29T07:29:12.650Z,98840.75
2022-07-29T07:34:17.878Z,98834.94
2022-07-29T07:39:36.028Z,98831.66
2022-07-29T07:45:03.846Z,98830.47
2022-07-29T07:50:06.959Z,98826.66
2022-07-29T07:55:15.004Z,98822.94
2022-07-29T08:00:23.718Z,98821.44
2022-07-29T08:05:28.997Z,98821.38
2022-07-29T08:11:04.294Z,98815.34
2022-07-29T08:16:16.843Z,98816.84
2022-07-29T08:21:22.240Z,98823.53
2022-07-29T08:26:29.875Z,98813.44
2022-07-29T08:31:35.743Z,98815.72
2022-07-29T08:36:42.662Z,98801.38
2022-07-29T08:41:56.752Z,98792.03
2022-07-29T08:47:05.551Z,98786.47
2022-07-29T08:52:11.228Z,98796.00
2022-07-29T08:57:21.134Z,98794.22
2022-07-29T09:02:28.594Z,98796.78
2022-07-29T09:07:34.830Z,98788.78
2022-07-29T09:12:43.002Z,98784.34
2022-07-29T09:17:50.793Z,98786.13
2022-07-29T09:22:56.814Z,98788.94
2022-07-29T09:28:12.531Z,98769.44
2022-07-29T09:33:17.756Z,98768.66
2022-07-29T09:38:23.030Z,98763.47
2022-07-29T09:43:30.984Z,98760.28
2022-07-29T09:48:38.166Z,98761.53
2022-07-29T09:53:43.449Z,98766.28
2022-07-29T09:58:51.551Z,98761.13
2022-07-29T10:04:00.654Z,98762.75
2022-07-29T10:09:14.324Z,98756.56
2022-07-29T10:14:22.210Z,98770.97
2022-07-29T10:19:28.180Z,98761.97
2022-07-29T10:24:36.312Z,98764.53
2022-07-29T10:29:43.937Z,98762.97
2022-07-29T10:35:05.488Z,98755.91
2022-07-29T10:40:31.898Z,98746.00
2022-07-29T10:45:39.629Z,98749.78
2022-07-29T10:50:57.187Z,98745.81
2022-07-29T10:56:06.296Z,98756.22
2022-07-29T11:01:37.020Z,98745.84
2022-07-29T11:07:13.188Z,98758.38
2022-07-29T11:12:52.972Z,98750.00
2022-07-29T11:18:15.206Z,98739.13
2022-07-29T11:23:33.965Z,98741.91
2022-07-29T11:28:43.663Z,98741.56
2022-07-29T11:33:56.517Z,98737.72
2022-07-29T11:39:36.803Z,98735.25
2022-07-29T11:44:58.343Z,98729.94
2022-07-29T11:50:18.158Z,98729.53
2022-07-29T11:55:33.975Z,98730.97
2022-07-29T12:00:41.441Z,98725.53
2022-07-29T12:05:51.800Z,98717.91
2022-07-29T12:10:56.979Z,98725.50
2022-07-29T12:16:02.371Z,98718.78
2022-07-29T12:21:12.565Z,98725.66
2022-07-29T12:26:25.485Z,98722.19
2022-07-29T12:31:42.329Z,98711.94
2022-07-29T12:36:53.208Z,98700.34
2022-07-29T12:42:04.716Z,98708.09
2022-07-29T12:47:09.989Z,98710.38
2022-07-29T12:52:33.959Z,98702.66
2022-07-29T12:57:49.109Z,98711.47
2022-07-29T13:03:00.002Z,98703.28
2022-07-29T13:08:20.346Z,98687.59
2022-07-29T13:13:27.578Z,98687.41
2022-07-29T13:18:33.591Z,98679.66
2022-07-29T13:23:41.339Z,98686.72
2022-07-29T13:28:48.550Z,98674.56
2022-07-29T13:33:53.699Z,98679.97
2022-07-29T13:39:03.739Z,98676.06
2022-07-29T13:44:08.797Z,98665.69
2022-07-29T13:49:14.548Z,98667.63
2022-07-29T13:54:22.124Z,98670.03
2022-07-29T13:59:27.140Z,98674.66
2022-07-29T14:04:32.469Z,98666.56
2022-07-29T14:09:41.717Z,98657.13
2022-07-29T14:14:47.361Z,98659.03
2022-07-29T14:19:52.553Z,98654.72
2022-07-29T14:25:04.528Z,98643.31
2022-07-29T14:30:19.724Z,98639.69
2022-07-29T14:35:24.879Z,98644.91
2022-07-29T14:40:32.394Z,98646.69
2022-07-29T14:45:37.426Z,98640.19
2022-07-29T14:50:42.396Z,98637.63
2022-07-29T14:55:50.243Z,98637.69
2022-07-29T15:00:55.835Z,98637.31
2022-07-29T15:06:01.038Z,98646.38
2022-07-29T15:11:08.887Z,98636.06
2022-07-29T15:16:13.890Z,98636.81
2022-07-29T15:21:18.783Z,98629.97
2022-07-29T15:26:26.526Z,98634.03
2022-07-29T15:31:31.503Z,98623.75
2022-07-29T15:36:53.328Z,98636.34
2022-07-29T15:42:03.258Z,98628.13
2022-07-29T15:47:09.638Z,98619.47
2022-07-29T15:52:16.144Z,98625.75
2022-07-29T15:57:24.680Z,98619.47
2022-07-29T16:02:29.705Z,98605.56
2022-07-29T16:07:37.873Z,98609.47
2022-07-29T16:12:45.629Z,98610.78
2022-07-29T16:17:50.628Z,98607.69
2022-07-29T16:22:55.642Z,98598.19
2022-07-29T16:28:03.369Z,98590.44
2022-07-29T16:33:08.607Z,98598.13
2022-07-29T16:38:13.792Z,98596.00
2022-07-29T16:43:21.491Z,98591.00
2022-07-29T16:48:26.539Z,98582.34
2022-07-29T16:53:31.486Z,98588.31
2022-07-29T16:58:41.749Z,98588.38
2022-07-29T17:04:00.983Z,98584.00
2022-07-29T17:09:07.319Z,98589.41
2022-07-29T17:14:14.957Z,98585.31
2022-07-29T17:19:19.868Z,98583.13
2022-07-29T17:24:26.599Z,98580.03
2022-07-29T17:29:34.959Z,98584.97
2022-07-29T17:34:40.225Z,98586.63
2022-07-29T17:39:45.802Z,98592.31
2022-07-29T17:44:53.278Z,98586.22
2022-07-29T17:49:58.218Z,98592.63
2022-07-29T17:55:03.743Z,98582.56
2022-07-29T18:00:12.516Z,98592.91
2022-07-29T18:05:17.535Z,98597.59
2022-07-29T18:10:22.447Z,98583.03
2022-07-29T18:15:30.055Z,98581.06
2022-07-29T18:20:35.409Z,98587.91
2022-07-29T18:25:40.900Z,98591.09
2022-07-29T18:30:49.290Z,98595.84
2022-07-29T18:36:10.877Z,98591.22
2022-07-29T18:41:16.884Z,98590.91
2022-07-29T18:46:25.384Z,98596.75
2022-07-29T18:51:32.520Z,98589.81
2022-07-29T18:56:37.496Z,98593.03
2022-07-29T19:01:45.236Z,98588.44
2022-07-29T19:06:50.610Z,98597.00
2022-07-29T19:11:56.723Z,98602.94
2022-07-29T19:17:05.595Z,98602.56
2022-07-29T19:22:10.478Z,98607.66
2022-07-29T19:27:17.290Z,98622.41
2022-07-29T19:32:25.621Z,98629.00
2022-07-29T19:37:30.916Z,98630.19
2022-07-29T19:42:36.047Z,98625.16
2022-07-29T19:47:43.743Z,98619.72
2022-07-29T19:52:49.970Z,98624.00
2022-07-29T19:57:55.447Z,98636.03
2022-07-29T20:03:03.519Z,98633.69
2022-07-29T20:08:09.521Z,98644.56
2022-07-29T20:13:14.738Z,98649.22
2022-07-29T20:18:22.300Z,98648.78
2022-07-29T20:23:27.224Z,98649.53
2022-07-29T20:28:32.280Z,98656.09
2022-07-29T20:33:41.955Z,98654.50
2022-07-29T20:38:46.907Z,98654.50
2022-07-29T20:43:53.157Z,98647.47
2022-07-29T20:49:00.837Z,98643.22
2022-07-29T20:54:06.040Z,98642.81
2022-07-29T20:59:12.393Z,98641.19
2022-07-29T21:04:20.003Z,98641.91
2022-07-29T21:09:25.064Z,98636.06
2022-07-29T21:14:47.751Z,98647.25
2022-07-29T21:19:55.475Z,98658.53
2022-07-29T21:25:01.742Z,98648.25
2022-07-29T21:30:07.724Z,98647.47
2022-07-29T21:35:35.957Z,98652.72
2022-07-29T21:40:40.792Z,98663.22
2022-07-29T21:45:47.859Z,98663.22
2022-07-29T21:50:56.527Z,98651.53
2022-07-29T21:56:01.463Z,98654.63
2022-07-29T22:01:07.051Z,98650.53
2022-07-29T22:06:18.221Z,98653.59
2022-07-29T22:11:23.709Z,98653.66
2022-07-29T22:16:28.863Z,98659.75
2022-07-29T22:21:36.645Z,98642.06
2022-07-29T22:26:41.771Z,98653.28
2022-07-29T22:31:46.910Z,98646.75
2022-07-29T22:36:54.508Z,98642.31
2022-07-29T22:41:59.459Z,98648.72
2022-07-29T22:47:04.540Z,98648.25
2022-07-29T22:52:12.120Z,98645.53
2022-07-29T22:57:19.830Z,98642.13
2022-07-29T23:02:29.629Z,98648.84
2022-07-29T23:07:39.431Z,98637.31
2022-07-29T23:12:45.620Z,98637.22
2022-07-29T23:17:50.625Z,98631.34
2022-07-29T23:22:58.084Z,98619.81
2022-07-29T23:28:03.289Z,98625.59
2022-07-29T23:33:08.484Z,98611.13
2022-07-29T23:38:15.935Z,98620.59
2022-07-29T23:43:20.984Z,98611.19
2022-07-29T23:48:26.077Z,98607.31
2022-07-29T23:53:33.585Z,98606.25
2022-07-29T23:58:39.787Z,98603.00
